Time;durP1;ratioP1;P1;durP2;ratioP2;P2;SDS_P1;SDS_P2;PMS_P1;PMS_P2;Temp;Humidity;BMP_temperature;BMP_pressure;BME280_temperature;BME280_humidity;BME280_pressure;Samples;Min_cycle;Max_cycle;Signal;HPM_P1;HPM_P2
2022/08/12 00:43:58;;;;;;;8.35;3.97;;;;;;;12.47;100.00;101567.19;4969361;28;20038;-75
2022/08/12 00:46:37;;;;;;;6.45;3.03;;;;;;;12.42;100.00;101560.63;4985630;28;20036;-74
2022/08/12 00:49:03;;;;;;;7.40;3.10;;;;;;;12.44;100.00;101564.84;4969744;28;20036;-75
2022/08/12 00:54:15;;;;;;;4.78;3.30;;;;;;;12.39;100.00;101567.19;4979581;28;20128;-73
2022/08/12 00:56:40;;;;;;;6.93;3.42;;;;;;;12.31;100.00;101565.31;4949183;28;20034;-74
2022/08/12 00:59:07;;;;;;;7.22;3.47;;;;;;;12.29;100.00;101574.59;4983837;28;20037;-74
2022/08/12 01:01:34;;;;;;;5.38;3.13;;;;;;;12.30;100.00;101571.75;4988809;28;20113;-73
2022/08/12 01:12:15;;;;;;;6.53;3.92;;;;;;;11.98;100.00;101568.97;4980315;28;20385;-74
2022/08/12 01:14:42;;;;;;;7.18;3.67;;;;;;;11.95;100.00;101564.75;4986650;28;20150;-74
2022/08/12 01:17:08;;;;;;;6.63;3.83;;;;;;;11.94;100.00;101564.94;4989034;28;20026;-74
2022/08/12 01:19:34;;;;;;;9.02;3.78;;;;;;;11.90;100.00;101569.81;4988349;28;20476;-74
2022/08/12 01:22:05;;;;;;;5.60;3.40;;;;;;;11.91;100.00;101570.63;4969740;28;20117;-74
2022/08/12 01:24:35;;;;;;;6.30;3.47;;;;;;;11.88;100.00;101569.97;4985892;28;20026;-74
2022/08/12 01:27:03;;;;;;;6.75;3.22;;;;;;;11.86;100.00;101569.28;4984995;28;20551;-74
2022/08/12 01:29:33;;;;;;;5.32;3.17;;;;;;;11.86;100.00;101563.06;4960640;28;20026;-74
2022/08/12 01:32:04;;;;;;;5.63;3.42;;;;;;;11.92;100.00;101575.03;4970137;28;20535;-74
2022/08/12 01:34:32;;;;;;;8.70;3.72;;;;;;;11.87;100.00;101573.66;4985987;28;20026;-74
2022/08/12 01:37:00;;;;;;;6.63;3.20;;;;;;;11.80;100.00;101572.63;4970927;28;20848;-74
2022/08/12 01:39:37;;;;;;;11.05;3.70;;;;;;;11.75;100.00;101571.41;4982784;28;20042;-74
2022/08/12 01:42:07;;;;;;;7.53;3.47;;;;;;;11.65;100.00;101566.16;4970934;28;20030;-73
2022/08/12 01:44:34;;;;;;;9.88;3.42;;;;;;;11.57;100.00;101569.69;4984808;28;20057;-74
2022/08/12 01:47:29;;;;;;;5.78;3.25;;;;;;;11.52;100.00;101565.78;4983486;28;20088;-74
2022/08/12 01:50:28;;;;;;;5.82;3.67;;;;;;;11.53;100.00;101559.38;4995454;28;20030;-74
2022/08/12 01:52:54;;;;;;;8.13;3.30;;;;;;;11.58;100.00;101570.50;4970868;28;20050;-74
2022/08/12 01:55:22;;;;;;;5.65;3.58;;;;;;;11.62;100.00;101558.41;4969039;28;20042;-74
2022/08/12 01:58:12;;;;;;;7.10;3.83;;;;;;;11.62;100.00;101563.81;4988706;28;20041;-74
2022/08/12 02:00:51;;;;;;;7.80;4.00;;;;;;;11.53;100.00;101554.00;4977894;28;20045;-74
2022/08/12 02:12:46;;;;;;;6.03;3.40;;;;;;;11.19;100.00;101534.19;4986375;28;20057;-74
2022/08/12 02:15:23;;;;;;;6.72;3.35;;;;;;;11.35;100.00;101559.47;4971985;28;20034;-75
2022/08/12 02:18:07;;;;;;;5.70;3.08;;;;;;;11.41;100.00;101554.28;4981207;28;20041;-74
2022/08/12 02:20:37;;;;;;;5.75;3.22;;;;;;;11.40;100.00;101551.75;4982100;28;20101;-74
2022/08/12 02:23:06;;;;;;;5.40;3.13;;;;;;;11.35;100.00;101544.19;4970582;28;20056;-74
2022/08/12 02:25:35;;;;;;;6.38;3.30;;;;;;;11.27;100.00;101546.81;4980322;28;20034;-74
2022/08/12 02:28:01;;;;;;;7.05;3.45;;;;;;;11.15;100.00;101532.78;4988839;28;20030;-74
2022/08/12 02:30:30;;;;;;;6.03;3.83;;;;;;;11.18;100.00;101542.41;4987094;28;20046;-74
2022/08/12 02:32:58;;;;;;;8.55;3.50;;;;;;;11.15;100.00;101540.03;4983892;28;20035;-74
2022/08/12 02:35:27;;;;;;;6.32;3.40;;;;;;;10.94;100.00;101517.03;4987794;28;20073;-74
2022/08/12 02:37:56;;;;;;;6.85;3.83;;;;;;;11.09;100.00;101540.69;4982413;28;20072;-74
2022/08/12 02:40:23;;;;;;;8.70;3.97;;;;;;;11.02;100.00;101551.22;4965723;28;20043;-74
2022/08/12 02:43:33;;;;;;;8.18;3.78;;;;;;;11.00;100.00;101548.69;4988408;28;20042;-74
2022/08/12 02:46:07;;;;;;;7.20;3.60;;;;;;;10.87;100.00;101536.66;4984237;28;20508;-74
2022/08/12 02:49:14;;;;;;;9.15;3.90;;;;;;;10.80;100.00;101531.09;4984917;28;20038;-74
2022/08/12 02:51:43;;;;;;;6.07;3.60;;;;;;;10.74;100.00;101537.09;4985865;28;20038;-74
2022/08/12 02:54:09;;;;;;;6.25;3.30;;;;;;;10.76;100.00;101545.84;4946280;28;20040;-74
2022/08/12 02:56:39;;;;;;;10.80;3.72;;;;;;;10.87;100.00;101553.66;4990419;28;20092;-74
2022/08/12 02:59:10;;;;;;;6.97;3.90;;;;;;;10.87;100.00;101552.81;4959507;28;20038;-74
2022/08/12 03:01:40;;;;;;;7.25;3.53;;;;;;;10.81;100.00;101548.91;4973223;28;20034;-74
2022/08/12 03:04:06;;;;;;;8.57;3.30;;;;;;;10.84;100.00;101550.44;4977813;28;20038;-74
2022/08/12 03:06:39;;;;;;;6.55;3.20;;;;;;;10.86;100.00;101545.75;4971471;28;20473;-74
2022/08/12 03:09:05;;;;;;;10.73;4.80;;;;;;;10.86;100.00;101541.22;5005246;28;20038;-74
2022/08/12 03:11:38;;;;;;;10.55;3.70;;;;;;;10.85;100.00;101542.22;4986376;28;20081;-74
2022/08/12 03:14:05;;;;;;;6.50;3.67;;;;;;;10.79;100.00;101537.47;4976243;28;20041;-75
2022/08/12 03:16:31;;;;;;;6.85;3.67;;;;;;;10.59;100.00;101525.25;4984088;28;20089;-73
2022/08/12 03:18:57;;;;;;;6.00;3.25;;;;;;;10.69;100.00;101536.72;4976493;28;20969;-74
2022/08/12 03:21:24;;;;;;;7.32;3.67;;;;;;;10.60;100.00;101526.91;4987138;28;20034;-74
2022/08/12 03:23:52;;;;;;;7.32;3.60;;;;;;;10.59;100.00;101536.00;4969148;28;20049;-74
2022/08/12 03:26:23;;;;;;;5.60;3.30;;;;;;;10.45;100.00;101505.97;4984151;28;20105;-74
2022/08/12 03:28:49;;;;;;;7.28;3.35;;;;;;;10.55;100.00;101532.75;4947248;28;20041;-74
2022/08/12 03:31:29;;;;;;;7.85;4.00;;;;;;;10.54;100.00;101534.59;4979495;28;20073;-73
2022/08/12 03:34:03;;;;;;;7.40;3.85;;;;;;;10.53;100.00;101532.94;4977035;28;20060;-74
2022/08/12 03:36:33;;;;;;;7.60;3.63;;;;;;;10.47;100.00;101530.00;4966160;28;20026;-73
2022/08/12 03:42:04;;;;;;;8.32;3.58;;;;;;;10.48;100.00;101527.19;4986444;28;20034;-74
2022/08/12 04:01:06;;;;;;;10.95;4.50;;;;;;;10.18;100.00;101516.78;4989549;28;20038;-74
2022/08/12 04:03:51;;;;;;;7.47;3.75;;;;;;;10.10;100.00;101499.59;4959336;28;20472;-74
2022/08/12 04:06:27;;;;;;;9.93;4.40;;;;;;;10.21;100.00;101513.78;4981844;28;20034;-74
2022/08/12 04:08:58;;;;;;;8.68;4.45;;;;;;;10.27;100.00;101508.69;4970425;28;20450;-73
2022/08/12 04:14:16;;;;;;;10.02;4.20;;;;;;;10.29;100.00;101490.56;4962192;28;20042;-74
2022/08/12 04:16:42;;;;;;;10.38;4.50;;;;;;;10.31;100.00;101488.53;4978335;28;20524;-74
2022/08/12 04:19:08;;;;;;;10.93;4.95;;;;;;;10.46;100.00;101513.03;4987044;28;20049;-74
2022/08/12 04:21:35;;;;;;;10.25;4.93;;;;;;;10.51;100.00;101508.03;4965271;28;20492;-74
2022/08/12 04:24:01;;;;;;;8.00;4.60;;;;;;;10.56;100.00;101503.03;4987901;28;20034;-74
2022/08/12 04:26:27;;;;;;;11.90;5.88;;;;;;;10.54;100.00;101505.03;4981729;28;20042;-74
2022/08/12 04:28:57;;;;;;;14.63;6.10;;;;;;;10.39;100.00;101476.19;4984050;28;20114;-73
2022/08/12 04:31:33;;;;;;;8.80;4.88;;;;;;;10.60;100.00;101505.41;4987825;28;20048;-73
2022/08/12 04:34:00;;;;;;;11.80;5.35;;;;;;;10.64;100.00;101502.25;4956262;28;20034;-74
2022/08/12 04:36:26;;;;;;;11.32;5.45;;;;;;;10.70;100.00;101512.34;4987238;28;20042;-74
2022/08/12 04:38:55;;;;;;;12.23;6.28;;;;;;;10.70;100.00;101503.44;4972118;28;20038;-73
2022/08/12 04:41:20;;;;;;;13.27;6.13;;;;;;;10.71;100.00;101508.66;4997122;28;20077;-74
2022/08/12 04:43:47;;;;;;;11.80;5.93;;;;;;;10.73;100.00;101506.66;4999208;28;20124;-74
2022/08/12 04:46:13;;;;;;;15.23;7.63;;;;;;;10.75;100.00;101515.41;4986133;28;20077;-74
2022/08/12 04:48:39;;;;;;;14.10;6.63;;;;;;;10.81;100.00;101513.09;4968562;28;20085;-74
2022/08/12 04:51:05;;;;;;;12.80;6.72;;;;;;;10.87;100.00;101507.91;4966804;28;20468;-73
2022/08/12 04:53:31;;;;;;;14.65;7.20;;;;;;;10.88;100.00;101515.00;4963506;28;20081;-75
2022/08/12 04:55:57;;;;;;;17.35;8.35;;;;;;;10.91;100.00;101520.06;4957489;28;20177;-74
2022/08/12 04:58:22;;;;;;;15.77;7.65;;;;;;;10.92;100.00;101513.66;4988623;28;20113;-74
2022/08/12 05:00:48;;;;;;;15.93;7.10;;;;;;;10.93;100.00;101514.53;4963251;28;20427;-74
2022/08/12 05:03:14;;;;;;;17.35;7.55;;;;;;;10.95;100.00;101513.34;4970347;28;20034;-74
2022/08/12 05:05:41;;;;;;;17.08;8.45;;;;;;;10.95;100.00;101507.97;4986319;28;20080;-74
2022/08/12 05:08:16;;;;;;;17.08;8.25;;;;;;;11.01;100.00;101514.56;4973163;28;20388;-74
2022/08/12 05:10:45;;;;;;;19.77;8.27;;;;;;;10.97;100.00;101516.72;4982044;28;20065;-75
2022/08/12 05:13:13;;;;;;;18.63;8.40;;;;;;;10.96;100.00;101515.03;4983963;28;20030;-74
2022/08/12 05:15:39;;;;;;;19.23;8.13;;;;;;;10.98;100.00;101512.16;4975801;28;20049;-74
2022/08/12 05:18:05;;;;;;;19.52;8.05;;;;;;;10.96;100.00;101509.66;4981647;28;20077;-73
2022/08/12 05:20:31;;;;;;;18.13;8.00;;;;;;;11.05;100.00;101509.69;4979128;28;20437;-74
2022/08/12 05:23:11;;;;;;;18.77;9.27;;;;;;;11.16;100.00;101510.25;4942961;28;20077;-74
2022/08/12 05:25:36;;;;;;;20.67;9.77;;;;;;;11.19;100.00;101518.03;4981764;28;20042;-74
2022/08/12 05:28:04;;;;;;;17.13;8.95;;;;;;;11.35;100.00;101511.88;4963878;28;20035;-74
2022/08/12 05:30:31;;;;;;;14.95;8.45;;;;;;;11.40;100.00;101509.50;4988287;28;20034;-74
2022/08/12 05:32:57;;;;;;;22.38;9.13;;;;;;;11.38;100.00;101514.22;4985593;28;20041;-73
2022/08/12 05:35:23;;;;;;;20.08;9.48;;;;;;;11.43;100.00;101519.09;4985265;28;20030;-74
2022/08/12 05:38:55;;;;;;;21.20;9.52;;;;;;;11.41;100.00;101492.34;4965520;28;20034;-74
2022/08/12 05:40:35;;;;;;;18.52;9.07;;;;;;;11.55;100.00;101519.66;4979627;28;20544;-75
2022/08/12 05:43:01;;;;;;;17.33;8.38;;;;;;;11.51;100.00;101511.09;4949282;28;20109;-74
2022/08/12 05:45:26;;;;;;;17.05;8.50;;;;;;;11.51;100.00;101511.09;4961278;28;20129;-74
2022/08/12 05:47:52;;;;;;;18.95;9.50;;;;;;;11.61;100.00;101514.44;4977948;28;20598;-74
2022/08/12 05:50:18;;;;;;;21.85;9.32;;;;;;;11.74;100.00;101516.69;4951020;28;20546;-74
2022/08/12 05:52:44;;;;;;;19.38;9.50;;;;;;;11.87;100.00;101524.31;4984719;28;20148;-73
2022/08/12 05:55:09;;;;;;;18.02;8.45;;;;;;;12.03;100.00;101515.41;4966322;28;20094;-74
2022/08/12 05:57:35;;;;;;;24.27;9.98;;;;;;;12.44;100.00;101523.53;4959542;28;20038;-74
2022/08/12 06:00:03;;;;;;;25.73;9.73;;;;;;;13.07;100.00;101514.66;4965961;28;20595;-74
2022/08/12 06:02:28;;;;;;;19.88;9.55;;;;;;;13.80;100.00;101510.78;4963538;28;20033;-74
2022/08/12 06:04:56;;;;;;;28.08;9.52;;;;;;;13.80;100.00;101523.44;4966314;28;20038;-74
2022/08/12 06:07:24;;;;;;;17.02;8.30;;;;;;;13.62;100.00;101521.00;4980698;28;20031;-74
2022/08/12 06:09:50;;;;;;;19.30;8.98;;;;;;;13.53;100.00;101520.22;4956528;28;20592;-74
2022/08/12 06:12:22;;;;;;;21.42;9.65;;;;;;;13.45;100.00;101512.16;4949174;28;20566;-75
2022/08/12 06:14:48;;;;;;;20.23;8.85;;;;;;;13.41;100.00;101518.91;4983394;28;20100;-73
2022/08/12 06:17:15;;;;;;;19.60;8.85;;;;;;;13.43;100.00;101521.47;4986735;28;20235;-74
2022/08/12 06:19:41;;;;;;;17.42;8.45;;;;;;;13.41;100.00;101519.75;4958325;28;20550;-74
2022/08/12 06:22:06;;;;;;;18.80;8.98;;;;;;;13.43;100.00;101519.59;4954651;28;20054;-74
2022/08/12 06:24:32;;;;;;;19.35;8.52;;;;;;;13.43;100.00;101522.28;4952495;28;20046;-74
2022/08/12 06:26:59;;;;;;;15.40;7.95;;;;;;;13.39;100.00;101512.88;4987390;28;20026;-74
2022/08/12 06:29:24;;;;;;;14.57;8.15;;;;;;;13.52;100.00;101523.09;4986950;28;20494;-74
2022/08/12 06:31:51;;;;;;;16.90;7.65;;;;;;;13.57;100.00;101520.69;4951912;28;20031;-74
2022/08/12 06:34:22;;;;;;;15.15;7.38;;;;;;;13.70;100.00;101522.81;4971184;28;20042;-74
2022/08/12 06:36:48;;;;;;;18.73;8.38;;;;;;;13.75;100.00;101523.13;4976270;28;20026;-74
2022/08/12 06:39:14;;;;;;;17.05;7.05;;;;;;;13.93;100.00;101528.28;4946958;28;20045;-74
2022/08/12 06:44:25;;;;;;;16.05;7.68;;;;;;;14.32;100.00;101522.75;4970655;28;20045;-74
2022/08/12 06:46:51;;;;;;;19.77;8.07;;;;;;;14.50;100.00;101525.97;4969649;28;20038;-74
2022/08/12 06:49:17;;;;;;;18.20;8.15;;;;;;;14.70;100.00;101530.88;4954158;28;20041;-74
2022/08/12 06:51:43;;;;;;;15.48;7.25;;;;;;;14.91;100.00;101527.47;4965355;28;20051;-74
2022/08/12 06:54:10;;;;;;;17.27;7.75;;;;;;;15.10;100.00;101523.34;4987127;28;20483;-73
2022/08/12 06:56:36;;;;;;;18.20;8.73;;;;;;;15.12;100.00;101499.63;4970783;28;20038;-73
2022/08/12 06:59:02;;;;;;;16.85;8.10;;;;;;;15.47;100.00;101524.25;4971166;28;20037;-74
2022/08/12 07:01:30;;;;;;;18.05;8.25;;;;;;;15.64;100.00;101520.31;4969978;28;20053;-74
2022/08/12 07:03:58;;;;;;;16.25;7.43;;;;;;;15.83;100.00;101521.59;4976411;28;20069;-73
2022/08/12 07:06:27;;;;;;;15.40;7.47;;;;;;;16.00;100.00;101520.31;4972193;28;20396;-73
2022/08/12 07:08:54;;;;;;;17.50;7.60;;;;;;;16.87;100.00;101524.63;4946346;28;20404;-73
2022/08/12 07:11:19;;;;;;;16.17;8.07;;;;;;;19.22;90.70;101525.75;4980355;28;20495;-74
2022/08/12 07:13:49;;;;;;;13.00;7.15;;;;;;;21.00;81.18;101523.97;4973155;28;20047;-74
2022/08/12 07:16:20;;;;;;;16.98;7.18;;;;;;;22.37;70.58;101516.09;4983429;28;20045;-73
2022/08/12 07:18:49;;;;;;;16.77;7.53;;;;;;;23.47;65.55;101527.34;4981162;28;20113;-73
2022/08/12 07:21:15;;;;;;;15.90;7.88;;;;;;;24.40;60.44;101525.28;4984229;28;20535;-73
2022/08/12 07:23:41;;;;;;;10.82;6.70;;;;;;;25.06;58.37;101519.97;4984817;28;20069;-73
2022/08/12 07:26:11;;;;;;;9.60;6.13;;;;;;;25.37;53.88;101517.63;4974120;28;20575;-73
2022/08/12 07:28:40;;;;;;;13.88;7.10;;;;;;;25.63;53.62;101514.09;4976808;28;20042;-74
2022/08/12 07:31:08;;;;;;;9.82;6.70;;;;;;;26.06;51.01;101517.03;4984252;28;20141;-74
2022/08/12 07:33:38;;;;;;;13.07;6.75;;;;;;;26.51;49.89;101524.91;4946567;28;20042;-74
2022/08/12 07:36:06;;;;;;;12.13;6.80;;;;;;;26.77;48.17;101522.34;4968766;28;20045;-74
2022/08/12 07:38:37;;;;;;;13.05;7.45;;;;;;;26.98;45.81;101498.44;4972775;28;20042;-74
2022/08/12 07:41:12;;;;;;;13.02;7.35;;;;;;;27.23;46.04;101519.03;4985400;28;20054;-74
2022/08/12 07:43:41;;;;;;;12.75;6.95;;;;;;;27.79;44.47;101519.22;4983576;28;20132;-74
2022/08/12 07:46:10;;;;;;;13.00;6.95;;;;;;;28.12;43.09;101514.31;4983150;28;20034;-74
2022/08/12 07:48:42;;;;;;;12.63;7.95;;;;;;;28.10;41.74;101517.34;4984760;28;20097;-73
2022/08/12 07:51:08;;;;;;;12.57;7.53;;;;;;;28.06;40.97;101511.56;4982005;28;20480;-74
2022/08/12 07:53:35;;;;;;;12.93;7.72;;;;;;;28.33;42.01;101510.47;4969107;28;20033;-74
2022/08/12 07:56:03;;;;;;;13.88;8.57;;;;;;;28.50;38.60;101510.22;4989230;28;20124;-74
2022/08/12 07:58:31;;;;;;;11.88;7.10;;;;;;;28.44;39.38;101514.06;4989487;28;20461;-74
2022/08/12 08:01:00;;;;;;;12.38;7.13;;;;;;;28.39;39.06;101508.50;4986720;28;20104;-74
2022/08/12 08:03:26;;;;;;;14.52;7.30;;;;;;;28.39;39.26;101502.97;4982452;28;20085;-74
2022/08/12 08:05:52;;;;;;;11.98;7.68;;;;;;;28.27;38.54;101504.09;4986579;28;20043;-74
2022/08/12 08:08:22;;;;;;;9.85;6.50;;;;;;;28.43;38.62;101504.94;4971819;28;20125;-75
2022/08/12 08:10:51;;;;;;;15.00;7.80;;;;;;;28.60;38.25;101499.13;4961617;28;20046;-74
2022/08/12 08:13:16;;;;;;;14.88;6.55;;;;;;;28.86;39.69;101504.59;4956027;28;20038;-74
2022/08/12 08:15:45;;;;;;;12.20;6.63;;;;;;;29.25;38.76;101479.03;4980931;28;20038;-75
2022/08/12 08:18:15;;;;;;;8.27;5.28;;;;;;;29.67;37.17;101491.59;4953740;28;20495;-74
2022/08/12 08:20:43;;;;;;;9.45;6.75;;;;;;;29.79;36.50;101487.31;4983097;28;20038;-73
2022/08/12 08:23:15;;;;;;;8.80;6.20;;;;;;;29.91;36.66;101466.75;4951874;28;20030;-75
2022/08/12 08:25:42;;;;;;;8.77;5.75;;;;;;;30.51;36.57;101492.34;4980185;28;20035;-74
2022/08/12 08:28:10;;;;;;;10.13;5.80;;;;;;;30.67;35.88;101492.97;4983693;28;20038;-74
2022/08/12 08:30:42;;;;;;;9.15;6.25;;;;;;;31.25;35.37;101495.69;4967815;28;20101;-74
2022/08/12 08:33:10;;;;;;;7.32;5.68;;;;;;;32.03;35.09;101478.78;4972441;28;20042;-74
2022/08/12 08:35:40;;;;;;;9.35;5.68;;;;;;;32.54;33.12;101494.59;4983434;28;20082;-76
2022/08/12 08:38:16;;;;;;;7.78;5.30;;;;;;;32.62;30.83;101488.31;4986204;28;20038;-76
2022/08/12 08:43:31;;;;;;;8.02;5.43;;;;;;;32.52;32.07;101494.06;4983640;28;20026;-76
2022/08/12 08:45:57;;;;;;;8.13;4.78;;;;;;;32.70;30.95;101489.56;4988255;28;20034;-75
2022/08/12 08:48:23;;;;;;;5.50;4.43;;;;;;;32.42;30.77;101489.50;4964242;28;20031;-76
2022/08/12 08:50:50;;;;;;;10.82;5.20;;;;;;;32.18;32.05;101484.09;4948957;28;20595;-76
2022/08/12 08:53:17;;;;;;;7.97;5.15;;;;;;;32.38;32.22;101477.31;4984801;28;20076;-75
2022/08/12 08:55:42;;;;;;;6.75;4.60;;;;;;;32.97;31.64;101464.53;4974802;28;20045;-76
2022/08/12 08:58:10;;;;;;;5.75;4.05;;;;;;;33.44;30.80;101479.13;4967543;28;20038;-77
2022/08/12 09:00:39;;;;;;;10.00;4.60;;;;;;;33.35;28.08;101480.19;4990635;28;20110;-76
2022/08/12 09:03:06;;;;;;;6.68;4.18;;;;;;;33.19;28.48;101474.94;4966600;28;20049;-76
2022/08/12 09:05:33;;;;;;;8.02;4.70;;;;;;;32.88;29.46;101459.97;4968564;28;20117;-76
2022/08/12 09:08:02;;;;;;;7.22;4.70;;;;;;;33.27;28.10;101467.81;4952699;28;20034;-76
2022/08/12 09:10:28;;;;;;;4.95;4.18;;;;;;;33.49;27.88;101467.84;4985590;28;20512;-76
2022/08/12 09:15:38;;;;;;;6.25;4.55;;;;;;;34.05;29.34;101462.91;4984678;28;20125;-75
2022/08/12 09:18:06;;;;;;;5.95;4.60;;;;;;;34.75;28.63;101460.56;4980308;28;20134;-75
2022/08/12 09:20:33;;;;;;;5.63;3.95;;;;;;;35.35;27.33;101459.06;4969950;28;20027;-75
2022/08/12 09:23:00;;;;;;;5.75;4.07;;;;;;;35.61;27.17;101468.34;4982205;28;20038;-76
2022/08/12 09:25:28;;;;;;;7.45;4.38;;;;;;;35.84;26.77;101459.78;4966155;28;20074;-75
2022/08/12 09:27:54;;;;;;;5.15;4.43;;;;;;;35.80;25.79;101456.81;4982691;28;20034;-76
2022/08/12 09:30:20;;;;;;;5.55;4.40;;;;;;;35.21;26.48;101459.22;4969407;28;20037;-76
2022/08/12 09:32:49;;;;;;;5.88;3.65;;;;;;;35.05;26.31;101432.88;4979918;28;20130;-84
2022/08/12 09:35:23;;;;;;;6.28;4.10;;;;;;;35.15;25.47;101452.97;4969262;28;20313;-84
2022/08/12 09:37:51;;;;;;;5.20;3.47;;;;;;;35.24;24.96;101448.22;4968041;28;20514;-84
2022/08/12 09:40:20;;;;;;;5.85;3.80;;;;;;;35.59;25.55;101453.03;4984521;28;20022;-87
2022/08/12 09:45:48;;;;;;;4.75;3.97;;;;;;;35.91;24.73;101453.66;4982536;28;20034;-85
2022/08/12 09:48:20;;;;;;;5.38;4.35;;;;;;;35.72;24.11;101440.84;4984916;28;20037;-87
2022/08/12 09:50:49;;;;;;;4.03;3.53;;;;;;;35.82;24.41;101453.69;4980595;28;20046;-87
2022/08/12 09:53:23;;;;;;;4.20;3.78;;;;;;;36.25;25.13;101439.63;4969398;28;20484;-85
2022/08/12 09:56:03;;;;;;;3.72;2.85;;;;;;;36.64;23.18;101409.69;4962111;28;20040;-84
2022/08/12 09:58:29;;;;;;;6.38;3.50;;;;;;;36.79;23.93;101452.31;4981985;28;20421;-83
2022/08/12 10:01:03;;;;;;;3.60;3.30;;;;;;;37.12;23.02;101447.69;4987413;28;20121;-84
2022/08/12 10:03:32;;;;;;;5.32;3.40;;;;;;;37.17;22.61;101447.47;4961750;28;20042;-83
2022/08/12 10:05:59;;;;;;;4.32;3.72;;;;;;;36.77;22.48;101452.66;4959035;28;20535;-84
2022/08/12 10:08:29;;;;;;;3.47;3.17;;;;;;;36.49;24.24;101444.69;4972154;28;20040;-90
2022/08/12 10:13:41;;;;;;;5.25;3.05;;;;;;;37.27;23.11;101448.25;4990598;28;20080;-86
2022/08/12 10:16:10;;;;;;;5.97;3.28;;;;;;;37.56;21.62;101444.59;4957064;28;20117;-86
2022/08/12 10:18:41;;;;;;;3.97;2.90;;;;;;;37.71;22.38;101429.09;4972156;28;20388;-84
2022/08/12 10:21:12;;;;;;;3.40;3.08;;;;;;;37.80;21.49;101444.69;4978937;28;20057;-84
2022/08/12 10:23:38;;;;;;;3.88;3.45;;;;;;;37.76;22.65;101428.88;4963801;28;20081;-84
2022/08/12 10:31:34;;;;;;;3.30;2.90;;;;;;;38.21;22.58;101437.38;4979965;28;20038;-85
2022/08/12 10:33:59;;;;;;;6.35;3.10;;;;;;;38.31;21.87;101433.28;4966705;28;20027;-86
2022/08/12 10:36:25;;;;;;;4.40;3.08;;;;;;;38.06;22.06;101424.00;4948996;28;20053;-85
2022/08/12 10:38:53;;;;;;;3.90;3.47;;;;;;;38.34;20.69;101426.94;4949276;28;20122;-84
2022/08/12 10:44:05;;;;;;;2.88;2.67;;;;;;;37.36;22.03;101432.16;4985756;28;20057;-83
2022/08/12 10:46:34;;;;;;;4.82;2.95;;;;;;;37.53;21.67;101434.06;4966874;28;20465;-83
2022/08/12 10:49:00;;;;;;;3.80;3.30;;;;;;;37.16;22.14;101426.22;4983451;28;20034;-83
2022/08/12 10:51:30;;;;;;;3.08;2.67;;;;;;;37.35;22.30;101422.13;4973807;28;20494;-83
2022/08/12 10:53:56;;;;;;;3.15;2.85;;;;;;;37.79;21.72;101400.13;4980406;28;20499;-83
2022/08/12 10:56:23;;;;;;;4.18;2.88;;;;;;;37.79;21.39;101425.38;4982175;28;20042;-83
2022/08/12 10:58:50;;;;;;;4.03;3.00;;;;;;;37.59;21.45;101405.44;4971529;28;20034;-82
2022/08/12 11:01:17;;;;;;;4.03;3.00;;;;;;;38.15;21.00;101418.28;4984789;28;20030;-82
2022/08/12 11:03:43;;;;;;;3.35;2.78;;;;;;;38.02;20.61;101418.22;4955224;28;20457;-83
2022/08/12 11:06:10;;;;;;;4.85;2.60;;;;;;;37.95;20.34;101412.34;4979330;28;20061;-82
2022/08/12 11:08:37;;;;;;;4.25;2.97;;;;;;;37.61;20.85;101407.91;4945205;28;20097;-82
2022/08/12 11:11:04;;;;;;;3.05;2.75;;;;;;;38.05;21.00;101408.28;4988039;28;20069;-84
2022/08/12 11:13:31;;;;;;;5.13;2.85;;;;;;;38.49;20.32;101403.81;4992700;28;20088;-82
2022/08/12 11:15:57;;;;;;;3.40;2.72;;;;;;;38.75;20.54;101404.66;4974557;28;20610;-82
2022/08/12 11:18:22;;;;;;;3.53;2.40;;;;;;;38.66;19.51;101404.75;4973794;28;20033;-82
2022/08/12 11:20:48;;;;;;;3.60;2.80;;;;;;;38.81;19.24;101401.22;4985321;28;20045;-82
2022/08/12 11:23:14;;;;;;;3.00;2.70;;;;;;;38.70;18.95;101400.91;4982264;28;20501;-83
2022/08/12 11:25:42;;;;;;;3.42;2.50;;;;;;;38.65;19.94;101392.69;4970710;28;20105;-82
2022/08/12 11:28:08;;;;;;;3.40;2.40;;;;;;;38.69;17.54;101390.00;4955141;28;20034;-82
2022/08/12 11:30:34;;;;;;;3.15;2.58;;;;;;;38.63;17.94;101382.97;4989326;28;20037;-83
2022/08/12 11:33:05;;;;;;;2.78;2.10;;;;;;;38.61;18.65;101380.53;4987749;28;20030;-82
2022/08/12 11:35:35;;;;;;;3.63;2.50;;;;;;;38.68;18.25;101389.19;4986025;28;20038;-82
2022/08/12 11:38:01;;;;;;;2.50;2.20;;;;;;;38.90;18.83;101371.03;4972122;28;20468;-82
2022/08/12 11:40:27;;;;;;;2.70;2.10;;;;;;;38.75;18.05;101382.97;4970845;28;20122;-82
2022/08/12 11:42:53;;;;;;;3.67;2.60;;;;;;;38.61;18.70;101376.88;4965575;28;20046;-82
2022/08/12 11:45:19;;;;;;;4.25;2.50;;;;;;;38.80;18.58;101379.13;4969085;28;20039;-83
2022/08/12 11:47:44;;;;;;;4.22;2.28;;;;;;;39.15;16.86;101379.41;4988200;28;20046;-83
2022/08/12 11:50:11;;;;;;;2.53;2.13;;;;;;;38.88;17.12;101381.00;4985816;28;20484;-83
2022/08/12 11:52:36;;;;;;;5.30;2.50;;;;;;;38.89;17.13;101369.38;4973261;28;20544;-83
2022/08/12 11:55:02;;;;;;;3.47;2.75;;;;;;;38.90;18.06;101378.63;4958919;28;20125;-82
2022/08/12 11:57:29;;;;;;;3.25;2.20;;;;;;;39.22;17.57;101368.38;4981351;28;20468;-83
2022/08/12 11:59:55;;;;;;;2.60;2.40;;;;;;;39.11;17.99;101350.34;4983508;28;20072;-83
2022/08/12 12:02:20;;;;;;;4.22;2.10;;;;;;;39.63;17.21;101363.53;4950022;28;20066;-84
2022/08/12 12:04:46;;;;;;;2.08;1.85;;;;;;;39.71;16.97;101358.91;4990112;28;20037;-84
2022/08/12 12:07:12;;;;;;;2.58;2.10;;;;;;;40.12;16.26;101351.16;4978778;28;20038;-82
2022/08/12 12:09:37;;;;;;;2.30;2.00;;;;;;;40.00;15.75;101361.34;4971317;28;20412;-84
2022/08/12 12:12:04;;;;;;;3.33;2.10;;;;;;;39.79;16.63;101350.31;4960288;28;20524;-84
2022/08/12 12:14:29;;;;;;;2.20;2.00;;;;;;;40.15;16.20;101354.09;4971933;28;20038;-83
2022/08/12 12:16:55;;;;;;;6.78;2.00;;;;;;;40.44;15.19;101354.81;4966773;28;20384;-85
2022/08/12 12:19:21;;;;;;;4.93;2.45;;;;;;;39.78;16.18;101357.16;4984013;28;20034;-84
2022/08/12 12:21:47;;;;;;;3.53;2.25;;;;;;;39.53;16.82;101355.59;4967579;28;20028;-84
2022/08/12 12:24:12;;;;;;;5.88;1.80;;;;;;;39.72;15.85;101352.09;4969527;28;20436;-84
2022/08/12 12:26:38;;;;;;;2.53;2.33;;;;;;;39.68;16.56;101352.00;4974959;28;20055;-84
2022/08/12 12:29:03;;;;;;;2.20;1.90;;;;;;;39.88;17.21;101343.69;4955851;28;20073;-85
2022/08/12 12:31:32;;;;;;;2.60;2.30;;;;;;;40.27;17.31;101339.09;4969862;28;20040;-82
2022/08/12 12:33:57;;;;;;;2.50;2.30;;;;;;;40.47;16.29;101342.81;4954401;28;20514;-83
2022/08/12 12:36:24;;;;;;;3.15;1.98;;;;;;;40.37;16.76;101337.75;4950198;28;20030;-82
2022/08/12 12:38:49;;;;;;;3.47;2.22;;;;;;;40.21;17.25;101335.75;4986072;28;20069;-83
2022/08/12 12:41:15;;;;;;;3.63;2.33;;;;;;;40.70;16.28;101325.22;4986601;28;20046;-82
2022/08/12 12:43:41;;;;;;;3.75;2.15;;;;;;;40.34;17.44;101313.13;4964271;28;20037;-82
2022/08/12 12:46:07;;;;;;;4.30;2.20;;;;;;;40.31;16.73;101333.56;4982411;28;20098;-83
2022/08/12 12:48:32;;;;;;;2.70;2.03;;;;;;;40.04;17.02;101330.47;4948972;28;20042;-82
2022/08/12 12:51:16;;;;;;;3.92;2.28;;;;;;;40.20;16.95;101339.72;4973731;28;20041;-82
2022/08/12 12:53:47;;;;;;;4.95;2.33;;;;;;;40.52;17.27;101328.44;4955535;28;20031;-82
2022/08/12 12:56:22;;;;;;;3.05;2.17;;;;;;;40.82;17.62;101333.56;4967852;28;20029;-81
2022/08/12 12:58:50;;;;;;;2.95;2.22;;;;;;;41.03;16.66;101327.56;4969378;28;20073;-81
2022/08/12 13:01:26;;;;;;;4.85;2.60;;;;;;;40.89;17.24;101330.91;4951085;28;20034;-81
2022/08/12 13:03:56;;;;;;;2.90;2.30;;;;;;;40.46;16.37;101335.53;4983032;28;20177;-81
2022/08/12 13:06:24;;;;;;;4.60;2.75;;;;;;;40.26;17.87;101331.03;4969868;28;20026;-81
2022/08/12 13:08:55;;;;;;;3.25;2.95;;;;;;;40.32;17.81;101324.75;4973732;28;20037;-81
2022/08/12 13:11:28;;;;;;;4.20;2.60;;;;;;;40.76;17.21;101326.59;4969795;28;20595;-81
2022/08/12 13:13:58;;;;;;;2.83;2.53;;;;;;;40.65;17.42;101327.16;4953837;28;20420;-80